createdAt,value
2016-12-14T00:03:35.078Z,7.57
2016-12-14T00:08:31.734Z,7.73
2016-12-14T00:13:30.029Z,7.76
2016-12-14T00:18:26.267Z,7.72
2016-12-14T00:23:22.934Z,7.83
2016-12-14T00:28:19.543Z,7.83
2016-12-14T00:33:16.673Z,7.83
2016-12-14T00:38:13.554Z,7.80
2016-12-14T00:43:10.001Z,7.90
2016-12-14T00:48:06.666Z,7.82
2016-12-14T00:53:03.479Z,7.82
2016-12-14T00:58:00.041Z,7.77
2016-12-14T01:02:57.143Z,7.75
2016-12-14T01:07:53.863Z,7.76
2016-12-14T01:12:50.418Z,7.79
2016-12-14T01:17:49.326Z,7.85
2016-12-14T01:22:45.172Z,7.77
2016-12-14T01:27:42.263Z,7.66
2016-12-14T01:32:39.681Z,7.67
2016-12-14T01:37:35.995Z,7.73
2016-12-14T01:42:33.430Z,7.75
2016-12-14T01:47:30.359Z,7.72
2016-12-14T01:52:27.158Z,7.72
2016-12-14T01:57:23.711Z,7.70
2016-12-14T02:02:20.067Z,7.69
2016-12-14T02:07:16.621Z,7.73
2016-12-14T02:12:13.239Z,7.66
2016-12-14T02:17:11.227Z,7.72
2016-12-14T02:22:08.023Z,7.69
2016-12-14T02:27:04.546Z,7.63
2016-12-14T02:32:01.233Z,7.57
2016-12-14T02:36:57.343Z,7.72
2016-12-14T02:41:53.935Z,7.63
2016-12-14T02:46:50.689Z,7.70
2016-12-14T02:51:47.223Z,7.75
2016-12-14T02:56:43.951Z,7.67
2016-12-14T03:01:40.934Z,7.69
2016-12-14T03:06:37.695Z,7.66
2016-12-14T03:11:34.204Z,7.66
2016-12-14T03:16:30.632Z,7.75
2016-12-14T03:21:28.204Z,7.76
2016-12-14T03:26:24.449Z,7.75
2016-12-14T03:31:20.853Z,7.70
2016-12-14T03:36:18.258Z,7.77
2016-12-14T03:41:14.657Z,7.79
2016-12-14T03:46:11.073Z,7.79
2016-12-14T03:51:07.819Z,7.79
2016-12-14T03:56:04.748Z,7.79
2016-12-14T04:01:01.211Z,7.73
2016-12-14T04:05:57.726Z,7.76
2016-12-14T04:10:54.008Z,7.80
2016-12-14T04:15:50.219Z,7.83
2016-12-14T04:20:46.788Z,7.83
2016-12-14T04:25:46.327Z,7.87
2016-12-14T04:30:42.710Z,7.82
2016-12-14T04:35:39.231Z,7.88
2016-12-14T04:40:36.429Z,7.90
2016-12-14T04:45:33.346Z,7.87
2016-12-14T04:50:29.955Z,7.90
2016-12-14T04:55:26.409Z,7.91
2016-12-14T05:00:25.957Z,7.85
2016-12-14T05:05:21.975Z,7.88
2016-12-14T05:10:19.885Z,7.87
2016-12-14T05:15:16.030Z,7.90
2016-12-14T05:20:12.755Z,7.88
2016-12-14T05:25:09.176Z,7.88
2016-12-14T05:30:05.609Z,7.95
2016-12-14T05:35:02.059Z,7.93
2016-12-14T05:39:58.612Z,8.00
2016-12-14T05:44:55.075Z,7.85
2016-12-14T05:49:51.727Z,8.00
2016-12-14T05:54:48.349Z,7.95
2016-12-14T05:59:45.307Z,8.00
2016-12-14T06:04:41.595Z,7.97
2016-12-14T06:09:38.335Z,7.98
2016-12-14T06:14:35.137Z,7.95
2016-12-14T06:19:32.356Z,7.95
2016-12-14T06:24:28.852Z,8.03
2016-12-14T06:29:25.190Z,8.00
2016-12-14T06:34:22.493Z,7.95
2016-12-14T06:39:19.137Z,8.01
2016-12-14T06:44:15.630Z,7.94
2016-12-14T06:49:11.994Z,7.97
2016-12-14T06:54:08.535Z,7.94
2016-12-14T06:59:05.254Z,7.97
2016-12-14T07:04:02.301Z,8.05
2016-12-14T07:08:59.164Z,7.91
2016-12-14T07:13:55.704Z,8.03
2016-12-14T07:18:52.174Z,7.95
2016-12-14T07:23:48.594Z,7.93
2016-12-14T07:28:45.153Z,7.87
2016-12-14T07:33:41.647Z,7.94
2016-12-14T07:38:38.158Z,7.98
2016-12-14T07:43:34.743Z,8.12
2016-12-14T07:48:31.295Z,8.08
2016-12-14T07:53:27.804Z,8.01
2016-12-14T07:58:24.014Z,8.00
2016-12-14T08:03:20.676Z,8.10
2016-12-14T08:08:17.078Z,8.12
2016-12-14T08:13:13.634Z,8.09
2016-12-14T08:18:09.995Z,8.13
2016-12-14T08:23:06.879Z,8.19
2016-12-14T08:28:03.402Z,8.00
2016-12-14T08:32:59.918Z,8.18
2016-12-14T08:37:56.513Z,8.19
2016-12-14T08:42:52.774Z,8.20
2016-12-14T08:47:49.082Z,8.19
2016-12-14T08:52:45.601Z,8.18
2016-12-14T08:57:42.902Z,8.16
2016-12-14T09:02:42.372Z,8.26
2016-12-14T09:07:38.436Z,8.19
2016-12-14T09:12:34.946Z,8.13
2016-12-14T09:17:31.704Z,8.19
2016-12-14T09:22:28.275Z,8.16
2016-12-14T09:27:24.883Z,8.23
2016-12-14T09:32:21.923Z,8.12
2016-12-14T09:37:18.213Z,8.15
2016-12-14T09:42:17.309Z,8.16
2016-12-14T09:47:13.230Z,8.23
2016-12-14T09:52:09.904Z,8.18
2016-12-14T09:57:06.910Z,8.28
2016-12-14T10:02:03.603Z,8.27
2016-12-14T10:07:00.084Z,8.33
2016-12-14T10:11:57.068Z,8.30
2016-12-14T10:16:53.438Z,8.45
2016-12-14T10:21:49.780Z,8.42
2016-12-14T10:26:48.287Z,8.36
2016-12-14T10:31:44.312Z,8.36
2016-12-14T10:36:40.713Z,8.30
2016-12-14T10:41:37.416Z,8.38
2016-12-14T10:46:33.831Z,8.33
2016-12-14T10:51:31.642Z,8.60
2016-12-14T10:56:28.092Z,8.49
2016-12-14T11:01:24.611Z,8.46
2016-12-14T11:06:21.290Z,8.55
2016-12-14T11:11:17.733Z,8.53
2016-12-14T11:16:16.674Z,8.58
2016-12-14T11:21:12.854Z,8.58
2016-12-14T11:26:15.294Z,8.53
2016-12-14T11:31:10.316Z,8.38
2016-12-14T11:36:06.788Z,8.44
2016-12-14T11:41:04.181Z,8.51
2016-12-14T11:46:00.584Z,8.55
2016-12-14T11:50:56.697Z,8.64
2016-12-14T11:55:53.694Z,8.61
2016-12-14T12:00:51.196Z,8.60
2016-12-14T12:05:47.359Z,8.63
2016-12-14T12:10:46.815Z,8.55
2016-12-14T12:15:42.387Z,8.63
2016-12-14T12:20:42.349Z,8.61
2016-12-14T12:25:38.217Z,8.60
2016-12-14T12:30:34.518Z,8.69
2016-12-14T12:35:33.760Z,8.78
2016-12-14T12:40:29.711Z,8.73
2016-12-14T12:45:26.040Z,8.70
2016-12-14T12:50:25.221Z,8.82
2016-12-14T12:55:21.642Z,8.92
2016-12-14T13:00:21.517Z,8.92
2016-12-14T13:05:17.804Z,8.99
2016-12-14T13:10:14.457Z,8.99
2016-12-14T13:15:10.952Z,8.91
2016-12-14T13:20:07.663Z,8.88
2016-12-14T13:25:04.289Z,9.04
2016-12-14T13:30:00.325Z,8.89
2016-12-14T13:34:58.443Z,8.91
2016-12-14T13:39:54.551Z,8.89
2016-12-14T13:44:51.185Z,8.97
2016-12-14T13:49:47.991Z,9.04
2016-12-14T13:54:44.316Z,8.97
2016-12-14T13:59:41.702Z,8.92
2016-12-14T14:04:39.381Z,8.92
2016-12-14T14:09:35.661Z,8.88
2016-12-14T14:14:31.845Z,8.89
2016-12-14T14:19:28.538Z,9.00
2016-12-14T14:24:25.041Z,8.97
2016-12-14T14:29:22.185Z,8.87
2016-12-14T14:34:18.900Z,8.95
2016-12-14T14:39:15.276Z,8.88
2016-12-14T14:44:11.807Z,8.84
2016-12-14T14:49:08.169Z,8.89
2016-12-14T14:54:07.323Z,8.81
2016-12-14T14:59:02.882Z,8.79
2016-12-14T15:03:59.525Z,8.82
2016-12-14T15:08:56.939Z,8.85
2016-12-14T15:13:53.256Z,8.84
2016-12-14T15:18:52.008Z,8.81
2016-12-14T15:23:48.287Z,8.76
2016-12-14T15:28:47.203Z,8.74
2016-12-14T15:33:43.120Z,8.67
2016-12-14T15:38:39.964Z,8.73
2016-12-14T15:43:35.965Z,8.67
2016-12-14T15:48:32.258Z,8.79
2016-12-14T15:53:30.335Z,8.67
2016-12-14T15:58:26.202Z,8.67
2016-12-14T16:03:22.620Z,8.60
2016-12-14T16:08:21.649Z,8.64
2016-12-14T16:13:17.672Z,8.73
2016-12-14T16:18:13.864Z,8.67
2016-12-14T16:23:10.720Z,8.69
2016-12-14T16:28:07.188Z,8.61
2016-12-14T16:33:03.608Z,8.66
2016-12-14T16:38:00.098Z,8.60
2016-12-14T16:42:56.748Z,8.61
2016-12-14T16:47:53.832Z,8.56
2016-12-14T16:52:50.245Z,8.63
2016-12-14T16:57:46.626Z,8.66
2016-12-14T17:02:43.058Z,8.51
2016-12-14T17:07:39.855Z,8.56
2016-12-14T17:12:36.121Z,8.56
2016-12-14T17:17:32.614Z,8.60
2016-12-14T17:22:29.855Z,8.55
2016-12-14T17:27:27.555Z,8.60
2016-12-14T17:32:23.875Z,8.64
2016-12-14T17:37:20.225Z,8.60
2016-12-14T17:42:16.856Z,8.55
2016-12-14T17:47:13.334Z,8.61
2016-12-14T17:52:10.037Z,8.55
2016-12-14T17:57:06.589Z,8.52
2016-12-14T18:02:03.119Z,8.51
2016-12-14T18:07:02.360Z,8.49
2016-12-14T18:11:59.356Z,8.49
2016-12-14T18:16:55.952Z,8.49
2016-12-14T18:21:52.525Z,8.52
2016-12-14T18:26:48.907Z,8.49
2016-12-14T18:31:45.439Z,8.48
2016-12-14T18:36:41.552Z,8.58
2016-12-14T18:41:38.103Z,8.55
2016-12-14T18:46:35.604Z,8.49
2016-12-14T18:51:32.055Z,8.55
2016-12-14T18:56:28.565Z,8.55
2016-12-14T19:01:25.185Z,8.60
2016-12-14T19:06:21.898Z,8.53
2016-12-14T19:11:18.196Z,8.52
2016-12-14T19:16:17.133Z,8.49
2016-12-14T19:21:13.101Z,8.63
2016-12-14T19:26:09.527Z,8.44
2016-12-14T19:31:06.157Z,8.42
2016-12-14T19:36:03.081Z,8.61
2016-12-14T19:40:59.655Z,8.46
2016-12-14T19:45:56.082Z,8.60
2016-12-14T19:50:52.643Z,8.58
2016-12-14T19:55:49.312Z,8.49
2016-12-14T20:00:46.484Z,8.60
2016-12-14T20:05:43.101Z,8.51
2016-12-14T20:10:40.272Z,8.58
2016-12-14T20:15:36.429Z,8.61
2016-12-14T20:20:33.719Z,8.60
2016-12-14T20:25:30.343Z,8.63
2016-12-14T20:30:26.610Z,8.58
2016-12-14T20:35:23.248Z,8.69
2016-12-14T20:40:19.786Z,8.48
2016-12-14T20:45:16.394Z,8.51
2016-12-14T20:50:12.932Z,8.48
2016-12-14T20:55:09.519Z,8.63
2016-12-14T21:00:07.201Z,8.61
2016-12-14T21:05:03.813Z,8.66
2016-12-14T21:10:00.309Z,8.60
2016-12-14T21:14:57.214Z,8.55
2016-12-14T21:19:53.415Z,8.64
2016-12-14T21:24:50.044Z,8.51
2016-12-14T21:29:47.083Z,8.48
2016-12-14T21:34:43.615Z,8.24
2016-12-14T21:39:39.950Z,8.15
2016-12-14T21:44:36.549Z,8.10
2016-12-14T21:49:32.972Z,7.97
2016-12-14T21:54:28.855Z,7.85
2016-12-14T21:59:25.757Z,7.80
2016-12-14T22:04:22.224Z,7.70
2016-12-14T22:09:19.422Z,7.61
2016-12-14T22:14:15.804Z,7.50
2016-12-14T22:19:12.356Z,7.51
2016-12-14T22:24:08.947Z,7.53
2016-12-14T22:29:04.796Z,7.38
2016-12-14T22:34:01.396Z,7.39
2016-12-14T22:38:58.402Z,7.36
2016-12-14T22:43:55.016Z,7.40
2016-12-14T22:48:51.388Z,7.39
2016-12-14T22:53:48.943Z,7.45
2016-12-14T22:58:45.125Z,7.31
2016-12-14T23:03:42.369Z,7.31
2016-12-14T23:08:38.627Z,7.38
2016-12-14T23:13:35.000Z,7.32
2016-12-14T23:18:31.884Z,7.39
2016-12-14T23:23:28.327Z,7.35
2016-12-14T23:28:24.643Z,7.32
2016-12-14T23:33:21.197Z,7.31
2016-12-14T23:38:17.987Z,7.20
2016-12-14T23:43:14.336Z,7.31
2016-12-14T23:48:10.786Z,7.29
2016-12-14T23:53:07.211Z,7.18
2016-12-14T23:58:03.938Z,7.25
